»·PEaware :: N16RD KSNA-KCRQ

N16RD :: KSNA-KCRQ

FLIGHT INFORMATION

Flight Status: Arrived
Operator: Privately registered:
United States
More flights under this callsign
Pilot: Brett B. (12105)
Aircraft: CESSNA 152 AEROBAT
(C152)
More flights by this aircraft type
Origin: KSNA John Wayne-Orange Co
United States
Destination: KCRQ McClellan-Palomar
United States
More flights between these airports :: More routes between these airports
Route: KSNA KCRQ
File this flight plan on PilotEdge
Remarks:
Altitude:
(Current/Filed)
3,500ft
Speed:
(Current/Filed)
105kts
Departed: 05-Dec-18 07:39 PM
Arrived: 05-Dec-18 08:09 PM
Distance/Time
Traveled:
44nm/0:29
Distance/Time
To Go:
Arrived

Flight Plot

Page will automatically refresh every two minutes.


Map Options




Map Legend


Flown Route
Filed Route
Departure Airport
Arrival Airport
Navaid (VOR, NDB)
Fix

Horizontal Profiles

Position Reports

Time Latitude Longitude Heading Altitude Ground
Speed
05-Dec-18 19:31 33.676032 -117.863837 116 59ft 0kts
05-Dec-18 19:32 33.676032 -117.863837 116 59ft 0kts
05-Dec-18 19:33 33.676032 -117.863836 116 59ft 0kts
05-Dec-18 19:34 33.676031 -117.863836 116 59ft 0kts
05-Dec-18 19:35 33.676031 -117.863836 116 59ft 0kts
05-Dec-18 19:36 33.677301 -117.863860 348 59ft 14kts
05-Dec-18 19:37 33.679723 -117.863827 296 59ft 0kts
05-Dec-18 19:37 33.679046 -117.864863 207 59ft 36kts
05-Dec-18 19:39 33.657080 -117.868519 160 506ft 90kts
05-Dec-18 19:39 33.637770 -117.859679 162 923ft 86kts
05-Dec-18 19:41 33.615347 -117.840096 126 1371ft 96kts
05-Dec-18 19:41 33.602973 -117.817948 126 1627ft 96kts
05-Dec-18 19:42 33.586617 -117.792813 132 1945ft 95kts
05-Dec-18 19:43 33.568945 -117.768484 136 2225ft 97kts
05-Dec-18 19:44 33.549014 -117.746480 142 2478ft 98kts
05-Dec-18 19:45 33.528176 -117.724774 142 2707ft 99kts
05-Dec-18 19:46 33.506803 -117.703471 142 2825ft 100kts
05-Dec-18 19:47 33.485284 -117.682055 142 2869ft 101kts
05-Dec-18 19:48 33.464055 -117.659826 139 2892ft 101kts
05-Dec-18 19:49 33.443697 -117.636527 137 2918ft 101kts
05-Dec-18 19:50 33.423720 -117.612771 136 2948ft 101kts
05-Dec-18 19:51 33.403799 -117.588481 133 2914ft 101kts
05-Dec-18 19:52 33.385354 -117.562935 131 2882ft 101kts
05-Dec-18 19:53 33.366789 -117.537415 133 2851ft 101kts
05-Dec-18 19:54 33.347902 -117.514695 139 2823ft 100kts
05-Dec-18 19:55 33.325965 -117.494347 147 2798ft 99kts
05-Dec-18 19:56 33.303503 -117.474874 141 2772ft 100kts
05-Dec-18 19:57 33.282419 -117.453322 142 2753ft 99kts
05-Dec-18 19:58 33.262665 -117.430039 129 2732ft 100kts
05-Dec-18 19:59 33.245257 -117.403424 127 2606ft 101kts
05-Dec-18 20:00 33.229049 -117.376169 116 2492ft 101kts
05-Dec-18 20:01 33.219903 -117.344795 103 2399ft 99kts
05-Dec-18 20:02 33.208094 -117.315356 121 2102ft 99kts
05-Dec-18 20:03 33.191555 -117.290382 157 1646ft 96kts
05-Dec-18 20:04 33.165489 -117.286729 174 1206ft 93kts
05-Dec-18 20:05 33.140022 -117.281809 148 775ft 96kts
05-Dec-18 20:06 33.131111 -117.254641 97 824ft 83kts
05-Dec-18 20:07 33.128965 -117.259122 301 656ft 67kts
05-Dec-18 20:08 33.128778 -117.276854 258 303ft 33kts
05-Dec-18 20:09 33.127644 -117.278844 80 303ft 18kts
05-Dec-18 20:10 33.127457 -117.275962 63 303ft 0kts
05-Dec-18 20:11 33.127457 -117.275962 63 303ft 0kts
05-Dec-18 20:12 33.127457 -117.275962 63 303ft 0kts
05-Dec-18 20:13 33.127457 -117.275962 63 303ft 0kts
05-Dec-18 20:14 33.127457 -117.275962 63 303ft 0kts
05-Dec-18 20:15 33.127457 -117.275962 63 303ft 0kts
05-Dec-18 20:16 33.127457 -117.275962 63 303ft 0kts
05-Dec-18 20:17 33.127457 -117.275962 63 303ft 0kts
05-Dec-18 20:18 33.127457 -117.275962 63 303ft 0kts
05-Dec-18 20:19 33.127457 -117.275962 63 303ft 0kts

Navigation Log

Ident Type
Flight plan parsing failed, navigation log unavailable